sensor_id;sensor_type;location;lat;lon;timestamp;pressure;altitude;pressure_sealevel;temperature;humidity
82746;BME280;72484;50.004;14.356;2023-12-28T00:01:48;98090.88;;;4.92;82.01
82746;BME280;72484;50.004;14.356;2023-12-28T00:05:46;98085.27;;;4.96;82.22
82746;BME280;72484;50.004;14.356;2023-12-28T00:09:43;98088.89;;;5.05;82.07
82746;BME280;72484;50.004;14.356;2023-12-28T00:13:41;98091.40;;;5.13;81.61
82746;BME280;72484;50.004;14.356;2023-12-28T00:17:38;98084.48;;;5.19;81.35
82746;BME280;72484;50.004;14.356;2023-12-28T00:21:36;98087.35;;;5.26;81.34
82746;BME280;72484;50.004;14.356;2023-12-28T00:25:33;98078.12;;;5.38;80.58
82746;BME280;72484;50.004;14.356;2023-12-28T00:29:30;98065.91;;;5.41;80.04
82746;BME280;72484;50.004;14.356;2023-12-28T00:33:30;98067.48;;;5.34;79.19
82746;BME280;72484;50.004;14.356;2023-12-28T00:37:27;98073.00;;;5.24;79.60
82746;BME280;72484;50.004;14.356;2023-12-28T00:41:25;98070.27;;;5.21;79.99
82746;BME280;72484;50.004;14.356;2023-12-28T00:45:22;98066.10;;;5.23;80.02
82746;BME280;72484;50.004;14.356;2023-12-28T00:49:19;98066.48;;;5.17;79.45
82746;BME280;72484;50.004;14.356;2023-12-28T00:53:17;98065.55;;;5.14;79.80
82746;BME280;72484;50.004;14.356;2023-12-28T00:57:16;98065.95;;;5.04;79.88
82746;BME280;72484;50.004;14.356;2023-12-28T01:01:13;98065.08;;;4.99;80.44
82746;BME280;72484;50.004;14.356;2023-12-28T01:05:11;98068.29;;;4.98;80.60
82746;BME280;72484;50.004;14.356;2023-12-28T01:09:09;98068.73;;;4.96;80.59
82746;BME280;72484;50.004;14.356;2023-12-28T01:13:06;98067.78;;;4.91;80.17
82746;BME280;72484;50.004;14.356;2023-12-28T01:17:05;98054.70;;;4.84;80.17
82746;BME280;72484;50.004;14.356;2023-12-28T01:21:02;98065.73;;;4.74;81.04
82746;BME280;72484;50.004;14.356;2023-12-28T01:25:00;98071.07;;;4.72;81.80
82746;BME280;72484;50.004;14.356;2023-12-28T01:28:57;98080.24;;;4.76;81.33
82746;BME280;72484;50.004;14.356;2023-12-28T01:32:57;98093.39;;;4.78;81.16
82746;BME280;72484;50.004;14.356;2023-12-28T01:36:54;98090.36;;;4.72;81.23
82746;BME280;72484;50.004;14.356;2023-12-28T01:40:52;98090.35;;;4.67;81.88
82746;BME280;72484;50.004;14.356;2023-12-28T01:44:49;98094.02;;;4.65;82.11
82746;BME280;72484;50.004;14.356;2023-12-28T01:48:48;98093.79;;;4.69;81.99
82746;BME280;72484;50.004;14.356;2023-12-28T01:52:46;98091.34;;;4.74;81.61
82746;BME280;72484;50.004;14.356;2023-12-28T01:56:45;98093.77;;;4.77;81.94
82746;BME280;72484;50.004;14.356;2023-12-28T02:00:42;98075.83;;;4.85;82.18
82746;BME280;72484;50.004;14.356;2023-12-28T02:04:41;98070.98;;;4.89;82.15
82746;BME280;72484;50.004;14.356;2023-12-28T02:08:38;98071.33;;;4.87;82.07
82746;BME280;72484;50.004;14.356;2023-12-28T02:12:36;98075.02;;;4.79;81.41
82746;BME280;72484;50.004;14.356;2023-12-28T02:16:36;98065.05;;;4.76;81.54
82746;BME280;72484;50.004;14.356;2023-12-28T02:20:36;98050.77;;;4.78;81.86
82746;BME280;72484;50.004;14.356;2023-12-28T02:29:03;98053.15;;;4.64;81.12
82746;BME280;72484;50.004;14.356;2023-12-28T02:33:11;98059.28;;;4.54;82.15
82746;BME280;72484;50.004;14.356;2023-12-28T02:37:13;98044.06;;;4.52;81.91
82746;BME280;72484;50.004;14.356;2023-12-28T02:41:17;98047.76;;;4.55;81.88
82746;BME280;72484;50.004;14.356;2023-12-28T02:45:14;98030.31;;;4.53;82.28
82746;BME280;72484;50.004;14.356;2023-12-28T02:49:11;98042.64;;;4.44;81.47
82746;BME280;72484;50.004;14.356;2023-12-28T02:53:08;98036.63;;;4.35;82.01
82746;BME280;72484;50.004;14.356;2023-12-28T02:57:06;98025.62;;;4.25;81.49
82746;BME280;72484;50.004;14.356;2023-12-28T03:01:03;98018.34;;;4.12;82.09
82746;BME280;72484;50.004;14.356;2023-12-28T03:05:01;98003.21;;;4.02;82.13
82746;BME280;72484;50.004;14.356;2023-12-28T03:08:58;97992.95;;;3.91;82.90
82746;BME280;72484;50.004;14.356;2023-12-28T03:12:58;97995.41;;;3.83;83.60
82746;BME280;72484;50.004;14.356;2023-12-28T03:16:57;97999.98;;;3.83;83.80
82746;BME280;72484;50.004;14.356;2023-12-28T03:20:54;97997.10;;;3.74;84.20
82746;BME280;72484;50.004;14.356;2023-12-28T03:25:09;98001.48;;;3.68;83.66
82746;BME280;72484;50.004;14.356;2023-12-28T03:28:28;98003.65;;;3.66;84.81
82746;BME280;72484;50.004;14.356;2023-12-28T03:32:26;98003.91;;;3.74;83.80
82746;BME280;72484;50.004;14.356;2023-12-28T03:36:24;98012.20;;;3.60;83.19
82746;BME280;72484;50.004;14.356;2023-12-28T03:40:22;98005.14;;;3.58;84.35
82746;BME280;72484;50.004;14.356;2023-12-28T03:44:22;98024.88;;;3.66;83.90
82746;BME280;72484;50.004;14.356;2023-12-28T03:48:20;98027.32;;;3.70;83.40
82746;BME280;72484;50.004;14.356;2023-12-28T03:52:18;98030.62;;;3.77;83.48
82746;BME280;72484;50.004;14.356;2023-12-28T03:56:23;98024.06;;;3.83;83.47
82746;BME280;72484;50.004;14.356;2023-12-28T04:00:21;98018.46;;;3.80;82.80
82746;BME280;72484;50.004;14.356;2023-12-28T04:04:20;98010.39;;;3.79;83.44
82746;BME280;72484;50.004;14.356;2023-12-28T04:08:19;98014.35;;;3.87;82.80
82746;BME280;72484;50.004;14.356;2023-12-28T04:12:17;98026.01;;;3.82;82.70
82746;BME280;72484;50.004;14.356;2023-12-28T04:16:17;98012.33;;;3.85;82.50
82746;BME280;72484;50.004;14.356;2023-12-28T04:20:15;98005.27;;;3.82;82.81
82746;BME280;72484;50.004;14.356;2023-12-28T04:24:13;98008.32;;;3.86;82.79
82746;BME280;72484;50.004;14.356;2023-12-28T04:28:11;98006.30;;;3.95;82.09
82746;BME280;72484;50.004;14.356;2023-12-28T04:32:08;97999.70;;;3.93;82.16
82746;BME280;72484;50.004;14.356;2023-12-28T04:36:07;98000.02;;;3.93;82.38
82746;BME280;72484;50.004;14.356;2023-12-28T04:40:08;98003.80;;;3.89;82.07
82746;BME280;72484;50.004;14.356;2023-12-28T04:44:07;98003.26;;;3.89;81.87
82746;BME280;72484;50.004;14.356;2023-12-28T04:48:08;98008.24;;;3.82;81.32
82746;BME280;72484;50.004;14.356;2023-12-28T04:52:06;98014.17;;;3.79;81.76
82746;BME280;72484;50.004;14.356;2023-12-28T04:56:03;98021.05;;;3.72;81.91
82746;BME280;72484;50.004;14.356;2023-12-28T05:00:01;98030.44;;;3.68;81.93
82746;BME280;72484;50.004;14.356;2023-12-28T05:03:59;98043.95;;;3.55;81.80
82746;BME280;72484;50.004;14.356;2023-12-28T05:07:58;98045.08;;;3.52;82.36
82746;BME280;72484;50.004;14.356;2023-12-28T05:11:55;98052.95;;;3.62;82.54
82746;BME280;72484;50.004;14.356;2023-12-28T05:15:53;98067.08;;;3.69;81.87
82746;BME280;72484;50.004;14.356;2023-12-28T05:19:50;98063.73;;;3.71;81.31
82746;BME280;72484;50.004;14.356;2023-12-28T05:23:48;98068.69;;;3.74;79.56
82746;BME280;72484;50.004;14.356;2023-12-28T05:27:47;98064.17;;;3.73;79.24
82746;BME280;72484;50.004;14.356;2023-12-28T05:31:45;98049.60;;;3.74;79.04
82746;BME280;72484;50.004;14.356;2023-12-28T05:35:42;98049.06;;;3.76;78.22
82746;BME280;72484;50.004;14.356;2023-12-28T05:39:40;98047.88;;;3.79;78.66
82746;BME280;72484;50.004;14.356;2023-12-28T05:43:40;98047.96;;;3.82;78.85
82746;BME280;72484;50.004;14.356;2023-12-28T05:47:40;98048.48;;;3.88;77.65
82746;BME280;72484;50.004;14.356;2023-12-28T05:51:40;98046.19;;;3.89;76.80
82746;BME280;72484;50.004;14.356;2023-12-28T05:55:38;98037.35;;;3.92;76.01
82746;BME280;72484;50.004;14.356;2023-12-28T05:59:39;98041.14;;;3.95;75.16
82746;BME280;72484;50.004;14.356;2023-12-28T06:03:40;98035.45;;;3.96;74.25
82746;BME280;72484;50.004;14.356;2023-12-28T06:07:37;98034.17;;;4.02;73.46
82746;BME280;72484;50.004;14.356;2023-12-28T06:11:35;98035.21;;;4.15;72.43
82746;BME280;72484;50.004;14.356;2023-12-28T06:15:32;98046.61;;;4.24;71.97
82746;BME280;72484;50.004;14.356;2023-12-28T06:19:30;98044.14;;;4.31;72.07
82746;BME280;72484;50.004;14.356;2023-12-28T06:23:26;98042.69;;;4.38;72.12
82746;BME280;72484;50.004;14.356;2023-12-28T06:27:24;98039.70;;;4.43;71.81
82746;BME280;72484;50.004;14.356;2023-12-28T06:31:21;98057.16;;;4.51;71.21
82746;BME280;72484;50.004;14.356;2023-12-28T06:35:21;98055.11;;;4.60;70.99
82746;BME280;72484;50.004;14.356;2023-12-28T06:39:18;98056.40;;;4.65;70.80
82746;BME280;72484;50.004;14.356;2023-12-28T06:43:15;98054.25;;;4.73;70.63
82746;BME280;72484;50.004;14.356;2023-12-28T06:47:12;98041.91;;;4.82;70.06
82746;BME280;72484;50.004;14.356;2023-12-28T06:51:09;98041.98;;;4.91;69.38
82746;BME280;72484;50.004;14.356;2023-12-28T06:55:06;98043.46;;;4.98;68.74
82746;BME280;72484;50.004;14.356;2023-12-28T06:59:04;98050.17;;;5.06;68.91
82746;BME280;72484;50.004;14.356;2023-12-28T07:03:00;98059.13;;;5.13;68.58
82746;BME280;72484;50.004;14.356;2023-12-28T07:06:58;98054.91;;;5.16;68.78
82746;BME280;72484;50.004;14.356;2023-12-28T07:10:55;98056.09;;;5.20;68.24
82746;BME280;72484;50.004;14.356;2023-12-28T07:14:56;98050.61;;;5.24;67.91
82746;BME280;72484;50.004;14.356;2023-12-28T07:18:54;98059.05;;;5.32;67.79
82746;BME280;72484;50.004;14.356;2023-12-28T07:22:52;98062.96;;;5.39;67.53
82746;BME280;72484;50.004;14.356;2023-12-28T07:26:53;98059.77;;;5.48;67.38
82746;BME280;72484;50.004;14.356;2023-12-28T07:30:52;98055.98;;;5.59;66.87
82746;BME280;72484;50.004;14.356;2023-12-28T07:34:53;98069.11;;;5.69;66.03
82746;BME280;72484;50.004;14.356;2023-12-28T07:38:51;98069.60;;;5.81;65.53
82746;BME280;72484;50.004;14.356;2023-12-28T07:42:48;98067.65;;;5.93;65.12
82746;BME280;72484;50.004;14.356;2023-12-28T07:46:46;98064.36;;;6.02;64.62
82746;BME280;72484;50.004;14.356;2023-12-28T07:50:44;98074.56;;;6.12;64.93
82746;BME280;72484;50.004;14.356;2023-12-28T07:55:00;98091.98;;;6.24;64.45
82746;BME280;72484;50.004;14.356;2023-12-28T07:58:19;98090.17;;;6.31;64.69
82746;BME280;72484;50.004;14.356;2023-12-28T08:02:16;98093.79;;;6.41;64.12
82746;BME280;72484;50.004;14.356;2023-12-28T08:06:14;98104.48;;;6.54;63.24
82746;BME280;72484;50.004;14.356;2023-12-28T08:10:12;98108.66;;;6.65;62.83
82746;BME280;72484;50.004;14.356;2023-12-28T08:14:09;98111.73;;;6.77;62.55
82746;BME280;72484;50.004;14.356;2023-12-28T08:18:07;98104.60;;;6.85;62.18
82746;BME280;72484;50.004;14.356;2023-12-28T08:22:04;98108.44;;;6.96;61.62
82746;BME280;72484;50.004;14.356;2023-12-28T08:26:01;98111.48;;;7.06;61.33
82746;BME280;72484;50.004;14.356;2023-12-28T08:29:58;98108.27;;;7.19;60.83
82746;BME280;72484;50.004;14.356;2023-12-28T08:33:56;98110.59;;;7.30;61.25
82746;BME280;72484;50.004;14.356;2023-12-28T08:37:54;98103.96;;;7.44;60.30
82746;BME280;72484;50.004;14.356;2023-12-28T08:41:51;98104.73;;;7.62;60.79
82746;BME280;72484;50.004;14.356;2023-12-28T08:45:49;98096.27;;;7.75;60.83
82746;BME280;72484;50.004;14.356;2023-12-28T08:49:47;98080.44;;;7.86;60.65
82746;BME280;72484;50.004;14.356;2023-12-28T08:53:44;98083.20;;;7.94;61.43
82746;BME280;72484;50.004;14.356;2023-12-28T08:57:42;98081.59;;;8.02;61.56
82746;BME280;72484;50.004;14.356;2023-12-28T09:01:39;98084.17;;;8.12;61.71
82746;BME280;72484;50.004;14.356;2023-12-28T09:05:37;98078.71;;;8.18;62.19
82746;BME280;72484;50.004;14.356;2023-12-28T09:09:34;98079.64;;;8.27;62.43
82746;BME280;72484;50.004;14.356;2023-12-28T09:13:31;98085.68;;;8.37;62.12
82746;BME280;72484;50.004;14.356;2023-12-28T09:17:28;98090.26;;;8.48;62.14
82746;BME280;72484;50.004;14.356;2023-12-28T09:21:28;98088.63;;;8.58;62.32
82746;BME280;72484;50.004;14.356;2023-12-28T09:25:26;98091.28;;;8.65;62.67
82746;BME280;72484;50.004;14.356;2023-12-28T09:29:23;98091.38;;;8.76;63.17
82746;BME280;72484;50.004;14.356;2023-12-28T09:33:21;98098.89;;;8.84;64.00
82746;BME280;72484;50.004;14.356;2023-12-28T09:37:18;98093.10;;;8.91;64.47
82746;BME280;72484;50.004;14.356;2023-12-28T09:41:15;98079.10;;;8.95;64.87
82746;BME280;72484;50.004;14.356;2023-12-28T09:45:14;98079.83;;;9.00;65.44
82746;BME280;72484;50.004;14.356;2023-12-28T09:49:14;98078.25;;;9.06;65.75
82746;BME280;72484;50.004;14.356;2023-12-28T09:53:14;98068.77;;;9.13;66.22
82746;BME280;72484;50.004;14.356;2023-12-28T09:57:12;98059.63;;;9.19;67.11
82746;BME280;72484;50.004;14.356;2023-12-28T10:01:11;98055.72;;;9.26;65.64
82746;BME280;72484;50.004;14.356;2023-12-28T10:05:13;98051.42;;;9.31;64.28
82746;BME280;72484;50.004;14.356;2023-12-28T10:09:11;98047.85;;;9.37;63.36
82746;BME280;72484;50.004;14.356;2023-12-28T10:13:10;98057.73;;;9.40;63.08
82746;BME280;72484;50.004;14.356;2023-12-28T10:17:08;98053.98;;;9.43;62.14
82746;BME280;72484;50.004;14.356;2023-12-28T10:21:06;98064.33;;;9.49;61.59
82746;BME280;72484;50.004;14.356;2023-12-28T10:25:06;98076.36;;;9.52;61.92
82746;BME280;72484;50.004;14.356;2023-12-28T10:29:04;98065.84;;;9.54;61.70
82746;BME280;72484;50.004;14.356;2023-12-28T10:33:01;98067.36;;;9.55;60.59
82746;BME280;72484;50.004;14.356;2023-12-28T10:37:01;98059.15;;;9.57;59.93
82746;BME280;72484;50.004;14.356;2023-12-28T10:41:00;98056.05;;;9.60;58.87
82746;BME280;72484;50.004;14.356;2023-12-28T10:45:03;98056.44;;;9.62;58.65
82746;BME280;72484;50.004;14.356;2023-12-28T10:49:11;98046.33;;;9.64;58.48
82746;BME280;72484;50.004;14.356;2023-12-28T10:53:20;98049.66;;;9.64;58.21
82746;BME280;72484;50.004;14.356;2023-12-28T10:57:26;98048.86;;;9.66;57.92
82746;BME280;72484;50.004;14.356;2023-12-28T11:01:31;98063.98;;;9.69;57.33
82746;BME280;72484;50.004;14.356;2023-12-28T11:05:32;98062.55;;;9.75;57.34
82746;BME280;72484;50.004;14.356;2023-12-28T11:09:31;98074.34;;;9.77;58.09
82746;BME280;72484;50.004;14.356;2023-12-28T11:13:49;98070.67;;;9.82;58.40
82746;BME280;72484;50.004;14.356;2023-12-28T11:17:07;98075.45;;;9.84;58.95
82746;BME280;72484;50.004;14.356;2023-12-28T11:21:07;98083.98;;;9.84;58.34
82746;BME280;72484;50.004;14.356;2023-12-28T11:25:04;98077.21;;;9.85;58.40
82746;BME280;72484;50.004;14.356;2023-12-28T11:29:05;98070.02;;;9.87;57.45
82746;BME280;72484;50.004;14.356;2023-12-28T11:33:03;98059.98;;;9.88;57.07
82746;BME280;72484;50.004;14.356;2023-12-28T11:37:06;98059.02;;;9.88;56.64
82746;BME280;72484;50.004;14.356;2023-12-28T11:41:07;98056.15;;;9.88;56.87
82746;BME280;72484;50.004;14.356;2023-12-28T11:45:07;98061.89;;;9.89;57.40
82746;BME280;72484;50.004;14.356;2023-12-28T11:49:09;98053.05;;;9.90;57.86
82746;BME280;72484;50.004;14.356;2023-12-28T11:53:06;98064.52;;;9.89;57.84
82746;BME280;72484;50.004;14.356;2023-12-28T11:57:03;98058.86;;;9.91;57.90
82746;BME280;72484;50.004;14.356;2023-12-28T12:01:01;98048.34;;;9.92;58.19
82746;BME280;72484;50.004;14.356;2023-12-28T12:04:59;98043.23;;;9.93;58.59
82746;BME280;72484;50.004;14.356;2023-12-28T12:08:58;98045.78;;;9.92;58.76
82746;BME280;72484;50.004;14.356;2023-12-28T12:12:55;98041.55;;;9.92;59.09
82746;BME280;72484;50.004;14.356;2023-12-28T12:16:52;98034.23;;;9.92;59.63
82746;BME280;72484;50.004;14.356;2023-12-28T12:20:51;98021.95;;;9.91;60.39
82746;BME280;72484;50.004;14.356;2023-12-28T12:24:50;98024.34;;;9.88;61.12
82746;BME280;72484;50.004;14.356;2023-12-28T12:28:48;98025.24;;;9.86;61.69
82746;BME280;72484;50.004;14.356;2023-12-28T12:32:45;98015.58;;;9.88;62.40
82746;BME280;72484;50.004;14.356;2023-12-28T12:36:42;98006.65;;;9.89;63.01
82746;BME280;72484;50.004;14.356;2023-12-28T12:40:40;98000.03;;;9.92;63.32
82746;BME280;72484;50.004;14.356;2023-12-28T12:44:37;98003.54;;;9.94;63.55
82746;BME280;72484;50.004;14.356;2023-12-28T12:48:34;98002.16;;;9.97;63.83
82746;BME280;72484;50.004;14.356;2023-12-28T12:52:31;98000.55;;;10.01;63.69
82746;BME280;72484;50.004;14.356;2023-12-28T12:56:29;97998.95;;;10.04;63.52
82746;BME280;72484;50.004;14.356;2023-12-28T13:00:27;98000.86;;;10.05;63.84
82746;BME280;72484;50.004;14.356;2023-12-28T13:04:29;97997.35;;;10.07;63.53
82746;BME280;72484;50.004;14.356;2023-12-28T13:08:27;97993.37;;;10.05;63.68
82746;BME280;72484;50.004;14.356;2023-12-28T13:12:25;97990.17;;;10.02;63.83
82746;BME280;72484;50.004;14.356;2023-12-28T13:16:22;97992.42;;;10.01;63.91
82746;BME280;72484;50.004;14.356;2023-12-28T13:20:20;98000.88;;;10.01;64.11
82746;BME280;72484;50.004;14.356;2023-12-28T13:24:17;98000.16;;;10.02;64.36
82746;BME280;72484;50.004;14.356;2023-12-28T13:28:15;98001.52;;;10.03;64.43
82746;BME280;72484;50.004;14.356;2023-12-28T13:32:12;98001.59;;;10.03;65.02
82746;BME280;72484;50.004;14.356;2023-12-28T13:36:11;97998.94;;;10.04;65.35
82746;BME280;72484;50.004;14.356;2023-12-28T13:40:14;98003.55;;;10.07;66.00
82746;BME280;72484;50.004;14.356;2023-12-28T13:44:13;98004.92;;;10.05;66.50
82746;BME280;72484;50.004;14.356;2023-12-28T13:48:15;98014.90;;;10.04;66.58
82746;BME280;72484;50.004;14.356;2023-12-28T13:52:15;98015.77;;;10.04;66.46
82746;BME280;72484;50.004;14.356;2023-12-28T13:56:14;98017.45;;;10.04;66.81
82746;BME280;72484;50.004;14.356;2023-12-28T14:00:17;98016.81;;;10.03;66.82
82746;BME280;72484;50.004;14.356;2023-12-28T14:04:16;98028.77;;;10.05;66.55
82746;BME280;72484;50.004;14.356;2023-12-28T14:08:16;98032.75;;;10.05;66.53
82746;BME280;72484;50.004;14.356;2023-12-28T14:12:19;98035.86;;;10.05;66.72
82746;BME280;72484;50.004;14.356;2023-12-28T14:16:19;98038.90;;;10.01;66.74
82746;BME280;72484;50.004;14.356;2023-12-28T14:20:19;98037.79;;;10.00;67.17
82746;BME280;72484;50.004;14.356;2023-12-28T14:24:20;98048.07;;;9.99;67.03
82746;BME280;72484;50.004;14.356;2023-12-28T14:28:19;98049.75;;;9.96;67.12
82746;BME280;72484;50.004;14.356;2023-12-28T14:32:17;98044.43;;;9.91;67.49
82746;BME280;72484;50.004;14.356;2023-12-28T14:36:22;98034.38;;;9.92;67.68
82746;BME280;72484;50.004;14.356;2023-12-28T14:40:23;98029.12;;;9.92;67.82
82746;BME280;72484;50.004;14.356;2023-12-28T14:44:23;98036.14;;;9.92;67.81
82746;BME280;72484;50.004;14.356;2023-12-28T14:48:20;98039.80;;;9.95;67.76
82746;BME280;72484;50.004;14.356;2023-12-28T14:52:17;98038.05;;;9.94;67.82
82746;BME280;72484;50.004;14.356;2023-12-28T14:56:16;98038.61;;;9.93;67.95
82746;BME280;72484;50.004;14.356;2023-12-28T15:00:17;98026.27;;;9.89;67.94
82746;BME280;72484;50.004;14.356;2023-12-28T15:04:18;98020.67;;;9.87;67.71
82746;BME280;72484;50.004;14.356;2023-12-28T15:08:22;98014.47;;;9.86;67.58
82746;BME280;72484;50.004;14.356;2023-12-28T15:12:24;98002.35;;;9.89;67.46
82746;BME280;72484;50.004;14.356;2023-12-28T15:16:29;98003.45;;;9.90;67.27
82746;BME280;72484;50.004;14.356;2023-12-28T15:20:30;98012.55;;;9.90;66.89
82746;BME280;72484;50.004;14.356;2023-12-28T15:24:30;98013.11;;;9.89;66.56
82746;BME280;72484;50.004;14.356;2023-12-28T15:28:27;98015.26;;;9.87;66.21
82746;BME280;72484;50.004;14.356;2023-12-28T15:32:24;98006.42;;;9.85;66.46
82746;BME280;72484;50.004;14.356;2023-12-28T15:36:21;98004.91;;;9.85;66.37
82746;BME280;72484;50.004;14.356;2023-12-28T15:40:19;98005.23;;;9.84;66.20
82746;BME280;72484;50.004;14.356;2023-12-28T15:44:17;98015.98;;;9.84;66.60
82746;BME280;72484;50.004;14.356;2023-12-28T15:48:14;98022.54;;;9.82;66.73
82746;BME280;72484;50.004;14.356;2023-12-28T15:52:12;98008.75;;;9.81;66.69
82746;BME280;72484;50.004;14.356;2023-12-28T15:56:31;97996.06;;;9.81;66.88
82746;BME280;72484;50.004;14.356;2023-12-28T15:59:48;98004.84;;;9.78;67.24
82746;BME280;72484;50.004;14.356;2023-12-28T16:03:45;97999.02;;;9.81;67.28
82746;BME280;72484;50.004;14.356;2023-12-28T16:07:43;97991.37;;;9.81;67.54
82746;BME280;72484;50.004;14.356;2023-12-28T16:11:40;97993.44;;;9.84;68.11
82746;BME280;72484;50.004;14.356;2023-12-28T16:15:38;97998.84;;;9.89;68.12
82746;BME280;72484;50.004;14.356;2023-12-28T16:19:38;98005.54;;;9.90;68.39
82746;BME280;72484;50.004;14.356;2023-12-28T16:23:37;98000.73;;;9.95;68.73
82746;BME280;72484;50.004;14.356;2023-12-28T16:27:35;97983.10;;;9.99;69.43
82746;BME280;72484;50.004;14.356;2023-12-28T16:31:35;97977.02;;;10.00;69.73
82746;BME280;72484;50.004;14.356;2023-12-28T16:35:31;97979.27;;;10.01;69.32
82746;BME280;72484;50.004;14.356;2023-12-28T16:39:30;97965.95;;;10.00;68.84
82746;BME280;72484;50.004;14.356;2023-12-28T16:43:29;97971.53;;;9.99;67.57
82746;BME280;72484;50.004;14.356;2023-12-28T16:47:27;97975.13;;;9.99;66.64
82746;BME280;72484;50.004;14.356;2023-12-28T16:51:24;97980.06;;;10.01;65.80
82746;BME280;72484;50.004;14.356;2023-12-28T16:55:21;97982.05;;;10.00;65.28
82746;BME280;72484;50.004;14.356;2023-12-28T16:59:21;97978.55;;;10.00;64.55
82746;BME280;72484;50.004;14.356;2023-12-28T17:03:19;97982.30;;;10.00;63.62
82746;BME280;72484;50.004;14.356;2023-12-28T17:07:16;97980.15;;;10.00;63.34
82746;BME280;72484;50.004;14.356;2023-12-28T17:11:16;97982.48;;;9.98;62.76
82746;BME280;72484;50.004;14.356;2023-12-28T17:15:15;97983.42;;;9.95;62.56
82746;BME280;72484;50.004;14.356;2023-12-28T17:19:13;97968.94;;;9.92;62.43
82746;BME280;72484;50.004;14.356;2023-12-28T17:23:15;97962.50;;;9.90;62.67
82746;BME280;72484;50.004;14.356;2023-12-28T17:27:26;97961.37;;;9.88;62.41
82746;BME280;72484;50.004;14.356;2023-12-28T17:30:53;97969.50;;;9.88;62.50
82746;BME280;72484;50.004;14.356;2023-12-28T17:34:55;97964.00;;;9.91;62.86
82746;BME280;72484;50.004;14.356;2023-12-28T17:38:53;97969.09;;;9.93;62.61
82746;BME280;72484;50.004;14.356;2023-12-28T17:42:54;97966.22;;;9.94;62.51
82746;BME280;72484;50.004;14.356;2023-12-28T17:47:00;97958.17;;;9.94;62.44
82746;BME280;72484;50.004;14.356;2023-12-28T17:51:00;97969.34;;;9.94;62.54
82746;BME280;72484;50.004;14.356;2023-12-28T17:54:58;97968.86;;;9.94;62.69
82746;BME280;72484;50.004;14.356;2023-12-28T17:58:56;97974.20;;;9.94;62.63
82746;BME280;72484;50.004;14.356;2023-12-28T18:02:53;97988.55;;;9.94;62.91
82746;BME280;72484;50.004;14.356;2023-12-28T18:06:50;97988.14;;;9.94;63.07
82746;BME280;72484;50.004;14.356;2023-12-28T18:10:47;97984.23;;;9.95;62.86
82746;BME280;72484;50.004;14.356;2023-12-28T18:14:45;97985.02;;;9.97;62.74
82746;BME280;72484;50.004;14.356;2023-12-28T18:18:42;97983.27;;;9.96;62.91
82746;BME280;72484;50.004;14.356;2023-12-28T18:22:39;97975.61;;;9.96;63.20
82746;BME280;72484;50.004;14.356;2023-12-28T18:26:36;97969.32;;;9.97;62.72
82746;BME280;72484;50.004;14.356;2023-12-28T18:30:33;97974.26;;;9.96;62.74
82746;BME280;72484;50.004;14.356;2023-12-28T18:34:31;97978.56;;;9.95;62.37
82746;BME280;72484;50.004;14.356;2023-12-28T18:38:28;97982.15;;;9.96;62.04
82746;BME280;72484;50.004;14.356;2023-12-28T18:42:26;97986.54;;;9.95;61.99
82746;BME280;72484;50.004;14.356;2023-12-28T18:46:23;97991.33;;;9.98;61.91
82746;BME280;72484;50.004;14.356;2023-12-28T18:50:21;97995.38;;;10.01;62.52
82746;BME280;72484;50.004;14.356;2023-12-28T18:54:18;97992.50;;;10.02;62.43
82746;BME280;72484;50.004;14.356;2023-12-28T18:58:16;97994.56;;;10.04;62.57
82746;BME280;72484;50.004;14.356;2023-12-28T19:02:16;97997.27;;;10.04;62.79
82746;BME280;72484;50.004;14.356;2023-12-28T19:06:15;97997.67;;;10.07;63.08
82746;BME280;72484;50.004;14.356;2023-12-28T19:10:13;97998.70;;;10.10;63.24
82746;BME280;72484;50.004;14.356;2023-12-28T19:14:10;98001.96;;;10.11;63.33
82746;BME280;72484;50.004;14.356;2023-12-28T19:18:08;97996.84;;;10.13;63.61
82746;BME280;72484;50.004;14.356;2023-12-28T19:22:05;98003.29;;;10.16;63.33
82746;BME280;72484;50.004;14.356;2023-12-28T19:26:03;98003.23;;;10.16;64.27
82746;BME280;72484;50.004;14.356;2023-12-28T19:30:01;98003.16;;;10.18;64.84
82746;BME280;72484;50.004;14.356;2023-12-28T19:34:03;98003.29;;;10.22;65.06
82746;BME280;72484;50.004;14.356;2023-12-28T19:38:05;98004.87;;;10.25;65.15
82746;BME280;72484;50.004;14.356;2023-12-28T19:42:09;97998.95;;;10.29;65.47
82746;BME280;72484;50.004;14.356;2023-12-28T19:46:08;97989.77;;;10.32;65.63
82746;BME280;72484;50.004;14.356;2023-12-28T19:50:10;97979.00;;;10.31;66.07
82746;BME280;72484;50.004;14.356;2023-12-28T19:54:09;97990.27;;;10.28;66.01
82746;BME280;72484;50.004;14.356;2023-12-28T19:58:06;97995.52;;;10.32;66.25
82746;BME280;72484;50.004;14.356;2023-12-28T20:02:03;97989.30;;;10.31;66.53
82746;BME280;72484;50.004;14.356;2023-12-28T20:06:04;97986.77;;;10.28;66.90
82746;BME280;72484;50.004;14.356;2023-12-28T20:10:04;97988.60;;;10.27;67.27
82746;BME280;72484;50.004;14.356;2023-12-28T20:14:05;97975.38;;;10.22;67.95
82746;BME280;72484;50.004;14.356;2023-12-28T20:18:03;97965.90;;;10.20;68.75
82746;BME280;72484;50.004;14.356;2023-12-28T20:22:00;97971.72;;;10.15;69.82
82746;BME280;72484;50.004;14.356;2023-12-28T20:25:57;97969.91;;;10.08;70.72
82746;BME280;72484;50.004;14.356;2023-12-28T20:29:55;97974.14;;;10.04;71.26
82746;BME280;72484;50.004;14.356;2023-12-28T20:33:52;97983.57;;;10.00;72.05
82746;BME280;72484;50.004;14.356;2023-12-28T20:37:50;97993.95;;;9.98;72.33
82746;BME280;72484;50.004;14.356;2023-12-28T20:41:47;97990.61;;;9.95;73.20
82746;BME280;72484;50.004;14.356;2023-12-28T20:45:44;97979.48;;;9.87;73.66
82746;BME280;72484;50.004;14.356;2023-12-28T20:49:42;97972.00;;;9.81;74.21
82746;BME280;72484;50.004;14.356;2023-12-28T20:53:40;97978.07;;;9.75;74.66
82746;BME280;72484;50.004;14.356;2023-12-28T20:57:39;97976.89;;;9.74;74.39
82746;BME280;72484;50.004;14.356;2023-12-28T21:01:36;97983.51;;;9.72;74.48